sensor_id;sensor_type;location;lat;lon;timestamp;P1;durP1;ratioP1;P2;durP2;ratioP2
39490;SDS011;25175;50.140;18.990;2022-09-17T00:01:25;16.35;;;8.02;;
39490;SDS011;25175;50.140;18.990;2022-09-17T00:04:28;18.10;;;7.80;;
39490;SDS011;25175;50.140;18.990;2022-09-17T00:07:30;18.65;;;8.85;;
39490;SDS011;25175;50.140;18.990;2022-09-17T00:10:35;22.60;;;9.27;;
39490;SDS011;25175;50.140;18.990;2022-09-17T00:13:39;19.17;;;8.13;;
39490;SDS011;25175;50.140;18.990;2022-09-17T00:16:43;17.73;;;8.27;;
39490;SDS011;25175;50.140;18.990;2022-09-17T00:19:47;18.67;;;8.55;;
39490;SDS011;25175;50.140;18.990;2022-09-17T00:22:50;22.00;;;9.63;;
39490;SDS011;25175;50.140;18.990;2022-09-17T00:25:52;18.85;;;9.73;;
39490;SDS011;25175;50.140;18.990;2022-09-17T00:28:55;21.58;;;10.07;;
39490;SDS011;25175;50.140;18.990;2022-09-17T00:31:59;21.17;;;9.07;;
39490;SDS011;25175;50.140;18.990;2022-09-17T00:35:02;20.83;;;9.07;;
39490;SDS011;25175;50.140;18.990;2022-09-17T00:38:04;19.48;;;8.57;;
39490;SDS011;25175;50.140;18.990;2022-09-17T00:41:07;19.10;;;9.20;;
39490;SDS011;25175;50.140;18.990;2022-09-17T00:47:44;20.27;;;10.68;;
39490;SDS011;25175;50.140;18.990;2022-09-17T00:50:51;14.13;;;6.72;;
39490;SDS011;25175;50.140;18.990;2022-09-17T00:53:54;11.05;;;6.43;;
39490;SDS011;25175;50.140;18.990;2022-09-17T00:56:57;15.07;;;6.78;;
39490;SDS011;25175;50.140;18.990;2022-09-17T00:59:59;14.20;;;7.20;;
39490;SDS011;25175;50.140;18.990;2022-09-17T01:03:04;13.45;;;8.00;;
39490;SDS011;25175;50.140;18.990;2022-09-17T01:06:09;16.02;;;7.00;;
39490;SDS011;25175;50.140;18.990;2022-09-17T01:09:21;14.43;;;7.20;;
39490;SDS011;25175;50.140;18.990;2022-09-17T01:12:33;15.23;;;6.72;;
39490;SDS011;25175;50.140;18.990;2022-09-17T01:15:48;10.15;;;6.07;;
39490;SDS011;25175;50.140;18.990;2022-09-17T01:18:59;12.43;;;5.53;;
39490;SDS011;25175;50.140;18.990;2022-09-17T01:22:19;12.32;;;5.22;;
39490;SDS011;25175;50.140;18.990;2022-09-17T01:25:28;9.75;;;5.30;;
39490;SDS011;25175;50.140;18.990;2022-09-17T01:28:40;10.95;;;5.90;;
39490;SDS011;25175;50.140;18.990;2022-09-17T01:31:49;15.40;;;6.43;;
39490;SDS011;25175;50.140;18.990;2022-09-17T01:38:01;11.93;;;7.07;;
39490;SDS011;25175;50.140;18.990;2022-09-17T01:41:13;11.02;;;7.10;;
39490;SDS011;25175;50.140;18.990;2022-09-17T01:44:24;20.17;;;8.27;;
39490;SDS011;25175;50.140;18.990;2022-09-17T01:47:32;21.23;;;10.05;;
39490;SDS011;25175;50.140;18.990;2022-09-17T01:50:39;19.40;;;8.30;;
39490;SDS011;25175;50.140;18.990;2022-09-17T01:53:46;21.02;;;7.82;;
39490;SDS011;25175;50.140;18.990;2022-09-17T01:56:54;14.00;;;6.72;;
39490;SDS011;25175;50.140;18.990;2022-09-17T02:00:03;13.77;;;6.30;;
39490;SDS011;25175;50.140;18.990;2022-09-17T02:03:16;15.30;;;6.90;;
39490;SDS011;25175;50.140;18.990;2022-09-17T02:06:22;10.32;;;5.47;;
39490;SDS011;25175;50.140;18.990;2022-09-17T02:09:30;10.68;;;5.97;;
39490;SDS011;25175;50.140;18.990;2022-09-17T02:12:38;11.93;;;6.70;;
39490;SDS011;25175;50.140;18.990;2022-09-17T02:15:45;14.57;;;6.47;;
39490;SDS011;25175;50.140;18.990;2022-09-17T02:18:53;13.70;;;6.88;;
39490;SDS011;25175;50.140;18.990;2022-09-17T02:22:02;12.73;;;6.43;;
39490;SDS011;25175;50.140;18.990;2022-09-17T02:25:12;13.57;;;6.38;;
39490;SDS011;25175;50.140;18.990;2022-09-17T02:28:19;14.00;;;7.05;;
39490;SDS011;25175;50.140;18.990;2022-09-17T02:31:28;13.18;;;6.78;;
39490;SDS011;25175;50.140;18.990;2022-09-17T02:34:31;11.57;;;6.68;;
39490;SDS011;25175;50.140;18.990;2022-09-17T02:37:34;14.20;;;6.85;;
39490;SDS011;25175;50.140;18.990;2022-09-17T02:40:38;14.35;;;6.57;;
39490;SDS011;25175;50.140;18.990;2022-09-17T02:43:49;13.82;;;6.80;;
39490;SDS011;25175;50.140;18.990;2022-09-17T02:47:09;13.77;;;7.30;;
39490;SDS011;25175;50.140;18.990;2022-09-17T02:50:36;17.25;;;7.50;;
39490;SDS011;25175;50.140;18.990;2022-09-17T02:53:54;14.80;;;6.65;;
39490;SDS011;25175;50.140;18.990;2022-09-17T02:57:04;12.20;;;6.50;;
39490;SDS011;25175;50.140;18.990;2022-09-17T03:00:12;13.55;;;6.22;;
39490;SDS011;25175;50.140;18.990;2022-09-17T03:03:19;13.75;;;7.00;;
39490;SDS011;25175;50.140;18.990;2022-09-17T03:06:26;13.00;;;6.45;;
39490;SDS011;25175;50.140;18.990;2022-09-17T03:09:28;14.45;;;7.43;;
39490;SDS011;25175;50.140;18.990;2022-09-17T03:12:30;19.40;;;7.00;;
39490;SDS011;25175;50.140;18.990;2022-09-17T03:15:33;14.25;;;7.35;;
39490;SDS011;25175;50.140;18.990;2022-09-17T03:18:35;20.30;;;7.85;;
39490;SDS011;25175;50.140;18.990;2022-09-17T03:21:38;14.57;;;7.35;;
39490;SDS011;25175;50.140;18.990;2022-09-17T03:24:41;16.77;;;7.25;;
39490;SDS011;25175;50.140;18.990;2022-09-17T03:27:43;17.88;;;7.82;;
39490;SDS011;25175;50.140;18.990;2022-09-17T03:30:45;14.75;;;7.95;;
39490;SDS011;25175;50.140;18.990;2022-09-17T03:33:47;15.63;;;7.68;;
39490;SDS011;25175;50.140;18.990;2022-09-17T03:36:51;16.58;;;8.38;;
39490;SDS011;25175;50.140;18.990;2022-09-17T03:39:53;20.02;;;8.65;;
39490;SDS011;25175;50.140;18.990;2022-09-17T03:42:55;15.82;;;7.97;;
39490;SDS011;25175;50.140;18.990;2022-09-17T03:45:57;19.52;;;7.75;;
39490;SDS011;25175;50.140;18.990;2022-09-17T03:49:00;15.20;;;6.72;;
39490;SDS011;25175;50.140;18.990;2022-09-17T03:52:04;14.10;;;6.68;;
39490;SDS011;25175;50.140;18.990;2022-09-17T03:55:06;13.57;;;6.85;;
39490;SDS011;25175;50.140;18.990;2022-09-17T03:58:08;13.88;;;7.05;;
39490;SDS011;25175;50.140;18.990;2022-09-17T04:01:10;12.77;;;7.05;;
39490;SDS011;25175;50.140;18.990;2022-09-17T04:04:13;12.48;;;7.03;;
39490;SDS011;25175;50.140;18.990;2022-09-17T04:07:16;11.43;;;6.70;;
39490;SDS011;25175;50.140;18.990;2022-09-17T04:10:18;25.15;;;12.90;;
39490;SDS011;25175;50.140;18.990;2022-09-17T04:13:20;19.45;;;8.98;;
39490;SDS011;25175;50.140;18.990;2022-09-17T04:16:22;17.83;;;8.27;;
39490;SDS011;25175;50.140;18.990;2022-09-17T04:19:25;13.85;;;6.60;;
39490;SDS011;25175;50.140;18.990;2022-09-17T04:22:28;14.90;;;7.25;;
39490;SDS011;25175;50.140;18.990;2022-09-17T04:25:30;20.48;;;10.10;;
39490;SDS011;25175;50.140;18.990;2022-09-17T04:28:32;17.58;;;8.13;;
39490;SDS011;25175;50.140;18.990;2022-09-17T04:31:35;20.23;;;8.55;;
39490;SDS011;25175;50.140;18.990;2022-09-17T04:34:37;16.80;;;8.43;;
39490;SDS011;25175;50.140;18.990;2022-09-17T04:37:40;13.23;;;7.72;;
39490;SDS011;25175;50.140;18.990;2022-09-17T04:40:43;15.63;;;7.25;;
39490;SDS011;25175;50.140;18.990;2022-09-17T04:43:46;12.40;;;6.72;;
39490;SDS011;25175;50.140;18.990;2022-09-17T04:46:48;11.63;;;6.70;;
39490;SDS011;25175;50.140;18.990;2022-09-17T04:49:51;16.00;;;7.38;;
39490;SDS011;25175;50.140;18.990;2022-09-17T04:52:54;15.23;;;8.07;;
39490;SDS011;25175;50.140;18.990;2022-09-17T04:55:56;16.50;;;7.75;;
39490;SDS011;25175;50.140;18.990;2022-09-17T04:58:59;15.40;;;7.55;;
39490;SDS011;25175;50.140;18.990;2022-09-17T05:02:01;12.15;;;6.60;;
39490;SDS011;25175;50.140;18.990;2022-09-17T05:05:03;16.50;;;6.50;;
39490;SDS011;25175;50.140;18.990;2022-09-17T05:08:07;11.13;;;6.50;;
39490;SDS011;25175;50.140;18.990;2022-09-17T05:11:09;10.25;;;5.78;;
39490;SDS011;25175;50.140;18.990;2022-09-17T05:14:11;10.35;;;5.88;;
39490;SDS011;25175;50.140;18.990;2022-09-17T05:17:14;13.57;;;5.90;;
39490;SDS011;25175;50.140;18.990;2022-09-17T05:20:16;9.93;;;5.50;;
39490;SDS011;25175;50.140;18.990;2022-09-17T05:23:20;11.35;;;5.93;;
39490;SDS011;25175;50.140;18.990;2022-09-17T05:26:22;13.23;;;6.45;;
39490;SDS011;25175;50.140;18.990;2022-09-17T05:29:24;14.43;;;5.63;;
39490;SDS011;25175;50.140;18.990;2022-09-17T05:32:27;12.68;;;5.85;;
39490;SDS011;25175;50.140;18.990;2022-09-17T05:35:29;12.23;;;5.95;;
39490;SDS011;25175;50.140;18.990;2022-09-17T05:38:33;9.52;;;5.32;;
39490;SDS011;25175;50.140;18.990;2022-09-17T05:41:36;9.07;;;5.65;;
39490;SDS011;25175;50.140;18.990;2022-09-17T05:44:38;9.95;;;5.32;;
39490;SDS011;25175;50.140;18.990;2022-09-17T05:47:40;13.50;;;5.68;;
39490;SDS011;25175;50.140;18.990;2022-09-17T05:50:42;10.00;;;5.10;;
39490;SDS011;25175;50.140;18.990;2022-09-17T05:53:46;9.88;;;4.97;;
39490;SDS011;25175;50.140;18.990;2022-09-17T05:56:51;9.23;;;5.13;;
39490;SDS011;25175;50.140;18.990;2022-09-17T05:59:54;11.20;;;5.65;;
39490;SDS011;25175;50.140;18.990;2022-09-17T06:02:56;9.85;;;5.78;;
39490;SDS011;25175;50.140;18.990;2022-09-17T06:06:17;9.50;;;4.97;;
39490;SDS011;25175;50.140;18.990;2022-09-17T06:09:39;11.35;;;5.28;;
39490;SDS011;25175;50.140;18.990;2022-09-17T06:12:59;9.73;;;4.90;;
39490;SDS011;25175;50.140;18.990;2022-09-17T06:16:20;9.80;;;5.70;;
39490;SDS011;25175;50.140;18.990;2022-09-17T06:19:41;9.65;;;5.40;;
39490;SDS011;25175;50.140;18.990;2022-09-17T06:23:01;13.30;;;5.28;;
39490;SDS011;25175;50.140;18.990;2022-09-17T06:26:23;11.60;;;5.30;;
39490;SDS011;25175;50.140;18.990;2022-09-17T06:29:44;13.82;;;5.68;;
39490;SDS011;25175;50.140;18.990;2022-09-17T06:33:04;11.45;;;5.68;;
39490;SDS011;25175;50.140;18.990;2022-09-17T06:36:25;17.30;;;6.40;;
39490;SDS011;25175;50.140;18.990;2022-09-17T06:39:45;12.07;;;5.72;;
39490;SDS011;25175;50.140;18.990;2022-09-17T06:43:07;14.45;;;5.82;;
39490;SDS011;25175;50.140;18.990;2022-09-17T06:46:27;12.52;;;6.40;;
39490;SDS011;25175;50.140;18.990;2022-09-17T06:49:47;8.43;;;5.18;;
39490;SDS011;25175;50.140;18.990;2022-09-17T06:53:22;10.65;;;5.80;;
39490;SDS011;25175;50.140;18.990;2022-09-17T06:56:57;12.27;;;6.05;;
39490;SDS011;25175;50.140;18.990;2022-09-17T07:00:32;12.45;;;5.70;;
39490;SDS011;25175;50.140;18.990;2022-09-17T07:04:08;11.88;;;5.60;;
39490;SDS011;25175;50.140;18.990;2022-09-17T07:07:42;13.25;;;5.63;;
39490;SDS011;25175;50.140;18.990;2022-09-17T07:11:16;12.18;;;5.47;;
39490;SDS011;25175;50.140;18.990;2022-09-17T07:14:50;10.55;;;5.65;;
39490;SDS011;25175;50.140;18.990;2022-09-17T07:18:25;10.50;;;5.28;;
39490;SDS011;25175;50.140;18.990;2022-09-17T07:22:00;8.35;;;4.63;;
39490;SDS011;25175;50.140;18.990;2022-09-17T07:25:34;14.65;;;5.47;;
39490;SDS011;25175;50.140;18.990;2022-09-17T07:29:08;11.80;;;4.55;;
39490;SDS011;25175;50.140;18.990;2022-09-17T07:32:43;9.10;;;4.35;;
39490;SDS011;25175;50.140;18.990;2022-09-17T07:36:19;8.23;;;4.40;;
39490;SDS011;25175;50.140;18.990;2022-09-17T07:39:54;9.53;;;4.37;;
39490;SDS011;25175;50.140;18.990;2022-09-17T07:43:28;19.77;;;8.27;;
39490;SDS011;25175;50.140;18.990;2022-09-17T07:47:04;12.68;;;4.45;;
39490;SDS011;25175;50.140;18.990;2022-09-17T07:50:38;7.80;;;3.92;;
39490;SDS011;25175;50.140;18.990;2022-09-17T07:54:13;8.23;;;4.03;;
39490;SDS011;25175;50.140;18.990;2022-09-17T07:57:51;10.07;;;4.50;;
39490;SDS011;25175;50.140;18.990;2022-09-17T08:01:26;9.45;;;4.10;;
39490;SDS011;25175;50.140;18.990;2022-09-17T08:05:00;12.57;;;4.20;;
39490;SDS011;25175;50.140;18.990;2022-09-17T08:08:35;9.93;;;4.00;;
39490;SDS011;25175;50.140;18.990;2022-09-17T08:12:12;10.85;;;4.15;;
39490;SDS011;25175;50.140;18.990;2022-09-17T08:15:46;6.13;;;3.95;;
39490;SDS011;25175;50.140;18.990;2022-09-17T08:19:20;11.90;;;4.18;;
39490;SDS011;25175;50.140;18.990;2022-09-17T08:22:58;8.05;;;4.13;;
39490;SDS011;25175;50.140;18.990;2022-09-17T08:26:33;8.68;;;3.92;;
39490;SDS011;25175;50.140;18.990;2022-09-17T08:30:11;8.93;;;4.03;;
39490;SDS011;25175;50.140;18.990;2022-09-17T08:33:47;7.70;;;3.97;;
39490;SDS011;25175;50.140;18.990;2022-09-17T08:37:21;8.45;;;4.13;;
39490;SDS011;25175;50.140;18.990;2022-09-17T08:40:58;7.07;;;4.00;;
39490;SDS011;25175;50.140;18.990;2022-09-17T08:44:40;6.80;;;3.53;;
39490;SDS011;25175;50.140;18.990;2022-09-17T08:48:18;6.45;;;3.42;;
39490;SDS011;25175;50.140;18.990;2022-09-17T08:51:59;6.03;;;3.67;;
39490;SDS011;25175;50.140;18.990;2022-09-17T08:55:56;8.40;;;3.08;;
39490;SDS011;25175;50.140;18.990;2022-09-17T08:59:34;10.40;;;3.20;;
39490;SDS011;25175;50.140;18.990;2022-09-17T09:03:17;5.90;;;3.25;;
39490;SDS011;25175;50.140;18.990;2022-09-17T09:07:03;8.23;;;3.70;;
39490;SDS011;25175;50.140;18.990;2022-09-17T09:10:42;5.78;;;2.80;;
39490;SDS011;25175;50.140;18.990;2022-09-17T09:14:23;6.38;;;2.95;;
39490;SDS011;25175;50.140;18.990;2022-09-17T09:18:04;8.07;;;2.70;;
39490;SDS011;25175;50.140;18.990;2022-09-17T09:21:50;7.13;;;2.65;;
39490;SDS011;25175;50.140;18.990;2022-09-17T09:25:35;5.97;;;2.80;;
39490;SDS011;25175;50.140;18.990;2022-09-17T09:29:18;4.90;;;3.10;;
39490;SDS011;25175;50.140;18.990;2022-09-17T09:33:12;7.40;;;2.97;;
39490;SDS011;25175;50.140;18.990;2022-09-17T09:36:50;7.40;;;2.80;;
39490;SDS011;25175;50.140;18.990;2022-09-17T09:40:29;6.77;;;3.10;;
39490;SDS011;25175;50.140;18.990;2022-09-17T09:44:10;10.77;;;3.45;;
39490;SDS011;25175;50.140;18.990;2022-09-17T09:47:52;10.15;;;3.20;;
39490;SDS011;25175;50.140;18.990;2022-09-17T09:51:37;9.88;;;2.78;;
39490;SDS011;25175;50.140;18.990;2022-09-17T09:55:30;6.72;;;2.90;;
39490;SDS011;25175;50.140;18.990;2022-09-17T09:59:17;5.78;;;2.70;;
39490;SDS011;25175;50.140;18.990;2022-09-17T10:02:52;6.68;;;2.80;;
39490;SDS011;25175;50.140;18.990;2022-09-17T10:06:32;4.72;;;2.78;;
39490;SDS011;25175;50.140;18.990;2022-09-17T10:10:08;5.90;;;2.55;;
39490;SDS011;25175;50.140;18.990;2022-09-17T10:13:44;6.47;;;2.60;;
39490;SDS011;25175;50.140;18.990;2022-09-17T10:17:19;4.50;;;2.35;;
39490;SDS011;25175;50.140;18.990;2022-09-17T10:20:57;6.00;;;2.55;;
39490;SDS011;25175;50.140;18.990;2022-09-17T10:24:33;7.20;;;3.17;;
39490;SDS011;25175;50.140;18.990;2022-09-17T10:28:15;6.20;;;2.67;;
39490;SDS011;25175;50.140;18.990;2022-09-17T10:32:01;6.78;;;2.53;;
39490;SDS011;25175;50.140;18.990;2022-09-17T10:35:38;6.07;;;2.47;;
39490;SDS011;25175;50.140;18.990;2022-09-17T10:39:22;5.43;;;2.50;;
39490;SDS011;25175;50.140;18.990;2022-09-17T10:47:05;4.20;;;2.72;;
39490;SDS011;25175;50.140;18.990;2022-09-17T10:50:46;8.88;;;2.95;;
39490;SDS011;25175;50.140;18.990;2022-09-17T10:58:20;5.30;;;3.00;;
39490;SDS011;25175;50.140;18.990;2022-09-17T11:02:03;5.63;;;3.05;;
39490;SDS011;25175;50.140;18.990;2022-09-17T11:06:01;6.18;;;3.15;;
39490;SDS011;25175;50.140;18.990;2022-09-17T11:09:51;6.85;;;3.05;;
39490;SDS011;25175;50.140;18.990;2022-09-17T11:13:30;5.70;;;3.28;;
39490;SDS011;25175;50.140;18.990;2022-09-17T11:17:23;7.18;;;2.72;;
39490;SDS011;25175;50.140;18.990;2022-09-17T11:25:23;5.72;;;2.80;;
39490;SDS011;25175;50.140;18.990;2022-09-17T11:29:15;7.55;;;3.28;;
39490;SDS011;25175;50.140;18.990;2022-09-17T11:33:13;6.32;;;2.90;;
39490;SDS011;25175;50.140;18.990;2022-09-17T11:36:58;5.55;;;2.70;;
39490;SDS011;25175;50.140;18.990;2022-09-17T11:40:36;6.85;;;3.30;;
39490;SDS011;25175;50.140;18.990;2022-09-17T11:44:15;5.22;;;2.40;;
39490;SDS011;25175;50.140;18.990;2022-09-17T11:47:44;6.45;;;2.65;;
39490;SDS011;25175;50.140;18.990;2022-09-17T11:51:06;6.57;;;3.42;;
39490;SDS011;25175;50.140;18.990;2022-09-17T11:54:32;8.57;;;3.63;;
39490;SDS011;25175;50.140;18.990;2022-09-17T11:57:55;8.80;;;3.60;;
39490;SDS011;25175;50.140;18.990;2022-09-17T12:01:12;11.27;;;3.80;;
39490;SDS011;25175;50.140;18.990;2022-09-17T12:04:40;8.52;;;4.00;;
39490;SDS011;25175;50.140;18.990;2022-09-17T12:08:08;9.93;;;4.20;;
39490;SDS011;25175;50.140;18.990;2022-09-17T12:11:35;8.55;;;4.82;;
39490;SDS011;25175;50.140;18.990;2022-09-17T12:15:03;12.70;;;5.80;;
39490;SDS011;25175;50.140;18.990;2022-09-17T12:18:26;12.43;;;5.10;;
39490;SDS011;25175;50.140;18.990;2022-09-17T12:21:55;10.68;;;4.60;;
39490;SDS011;25175;50.140;18.990;2022-09-17T12:25:15;8.02;;;4.35;;
39490;SDS011;25175;50.140;18.990;2022-09-17T12:28:34;11.15;;;4.20;;
39490;SDS011;25175;50.140;18.990;2022-09-17T12:32:03;12.93;;;5.40;;
39490;SDS011;25175;50.140;18.990;2022-09-17T12:35:41;10.20;;;5.10;;
39490;SDS011;25175;50.140;18.990;2022-09-17T12:39:05;14.20;;;5.45;;
39490;SDS011;25175;50.140;18.990;2022-09-17T12:42:58;9.63;;;4.53;;
39490;SDS011;25175;50.140;18.990;2022-09-17T12:46:27;7.93;;;4.45;;
39490;SDS011;25175;50.140;18.990;2022-09-17T12:50:06;8.23;;;4.43;;
39490;SDS011;25175;50.140;18.990;2022-09-17T12:53:34;10.38;;;4.40;;
39490;SDS011;25175;50.140;18.990;2022-09-17T12:57:03;8.27;;;4.47;;
39490;SDS011;25175;50.140;18.990;2022-09-17T13:00:23;10.57;;;4.70;;
39490;SDS011;25175;50.140;18.990;2022-09-17T13:03:45;9.23;;;4.13;;
39490;SDS011;25175;50.140;18.990;2022-09-17T13:11:13;11.75;;;3.80;;
39490;SDS011;25175;50.140;18.990;2022-09-17T13:18:35;8.15;;;4.20;;
39490;SDS011;25175;50.140;18.990;2022-09-17T13:21:58;6.50;;;3.55;;
39490;SDS011;25175;50.140;18.990;2022-09-17T13:25:14;13.60;;;3.97;;
39490;SDS011;25175;50.140;18.990;2022-09-17T13:28:38;11.55;;;5.25;;
39490;SDS011;25175;50.140;18.990;2022-09-17T13:31:54;8.73;;;4.68;;
39490;SDS011;25175;50.140;18.990;2022-09-17T13:39:06;6.85;;;4.30;;
39490;SDS011;25175;50.140;18.990;2022-09-17T13:49:22;7.53;;;4.20;;
39490;SDS011;25175;50.140;18.990;2022-09-17T13:52:40;7.45;;;4.10;;
39490;SDS011;25175;50.140;18.990;2022-09-17T13:56:02;8.25;;;3.60;;
39490;SDS011;25175;50.140;18.990;2022-09-17T13:59:52;7.22;;;3.58;;
39490;SDS011;25175;50.140;18.990;2022-09-17T14:10:43;7.70;;;3.28;;
39490;SDS011;25175;50.140;18.990;2022-09-17T14:14:22;6.05;;;3.42;;
39490;SDS011;25175;50.140;18.990;2022-09-17T14:18:04;7.07;;;2.90;;
39490;SDS011;25175;50.140;18.990;2022-09-17T14:21:59;7.40;;;3.13;;
39490;SDS011;25175;50.140;18.990;2022-09-17T14:25:24;6.82;;;3.13;;
39490;SDS011;25175;50.140;18.990;2022-09-17T14:28:55;6.22;;;2.97;;
39490;SDS011;25175;50.140;18.990;2022-09-17T14:32:16;8.68;;;3.30;;
39490;SDS011;25175;50.140;18.990;2022-09-17T14:35:43;11.88;;;4.88;;
39490;SDS011;25175;50.140;18.990;2022-09-17T14:39:07;6.90;;;3.80;;
39490;SDS011;25175;50.140;18.990;2022-09-17T14:42:35;7.05;;;3.72;;
39490;SDS011;25175;50.140;18.990;2022-09-17T14:45:56;9.68;;;3.92;;
39490;SDS011;25175;50.140;18.990;2022-09-17T14:49:12;9.45;;;4.05;;
39490;SDS011;25175;50.140;18.990;2022-09-17T14:52:37;7.40;;;3.55;;
39490;SDS011;25175;50.140;18.990;2022-09-17T14:55:55;7.47;;;3.83;;
39490;SDS011;25175;50.140;18.990;2022-09-17T14:59:14;7.65;;;3.80;;
39490;SDS011;25175;50.140;18.990;2022-09-17T15:02:34;5.97;;;3.20;;
39490;SDS011;25175;50.140;18.990;2022-09-17T15:05:55;9.68;;;4.03;;
39490;SDS011;25175;50.140;18.990;2022-09-17T15:09:16;9.52;;;4.38;;
39490;SDS011;25175;50.140;18.990;2022-09-17T15:12:32;9.95;;;4.53;;
39490;SDS011;25175;50.140;18.990;2022-09-17T15:15:56;6.75;;;3.95;;
39490;SDS011;25175;50.140;18.990;2022-09-17T15:19:25;8.07;;;4.10;;
39490;SDS011;25175;50.140;18.990;2022-09-17T15:22:46;8.52;;;3.60;;
39490;SDS011;25175;50.140;18.990;2022-09-17T15:26:12;6.05;;;3.30;;
39490;SDS011;25175;50.140;18.990;2022-09-17T15:29:35;6.72;;;2.85;;
39490;SDS011;25175;50.140;18.990;2022-09-17T15:32:55;6.22;;;3.22;;
39490;SDS011;25175;50.140;18.990;2022-09-17T15:36:18;8.20;;;3.50;;
39490;SDS011;25175;50.140;18.990;2022-09-17T15:39:38;7.38;;;4.22;;
39490;SDS011;25175;50.140;18.990;2022-09-17T15:43:02;9.65;;;3.78;;
39490;SDS011;25175;50.140;18.990;2022-09-17T15:46:26;8.40;;;3.72;;
39490;SDS011;25175;50.140;18.990;2022-09-17T15:49:42;7.20;;;4.07;;
39490;SDS011;25175;50.140;18.990;2022-09-17T15:53:24;10.32;;;4.20;;
39490;SDS011;25175;50.140;18.990;2022-09-17T15:56:54;10.98;;;4.32;;
39490;SDS011;25175;50.140;18.990;2022-09-17T16:00:12;11.95;;;5.80;;
39490;SDS011;25175;50.140;18.990;2022-09-17T16:07:27;14.27;;;6.95;;
39490;SDS011;25175;50.140;18.990;2022-09-17T16:10:48;12.63;;;7.22;;
39490;SDS011;25175;50.140;18.990;2022-09-17T16:14:02;15.38;;;8.20;;
39490;SDS011;25175;50.140;18.990;2022-09-17T16:17:25;11.90;;;6.88;;
39490;SDS011;25175;50.140;18.990;2022-09-17T16:20:45;16.73;;;9.00;;
39490;SDS011;25175;50.140;18.990;2022-09-17T16:24:05;13.77;;;8.07;;
39490;SDS011;25175;50.140;18.990;2022-09-17T16:27:24;16.92;;;8.43;;
39490;SDS011;25175;50.140;18.990;2022-09-17T16:30:47;15.98;;;8.30;;
39490;SDS011;25175;50.140;18.990;2022-09-17T16:34:06;15.02;;;7.80;;
39490;SDS011;25175;50.140;18.990;2022-09-17T16:37:27;13.15;;;7.03;;
39490;SDS011;25175;50.140;18.990;2022-09-17T16:40:46;13.02;;;5.97;;
39490;SDS011;25175;50.140;18.990;2022-09-17T16:44:03;15.43;;;5.85;;
39490;SDS011;25175;50.140;18.990;2022-09-17T16:47:22;10.65;;;5.72;;
39490;SDS011;25175;50.140;18.990;2022-09-17T16:50:42;12.95;;;6.32;;
39490;SDS011;25175;50.140;18.990;2022-09-17T16:53:56;13.63;;;7.47;;
39490;SDS011;25175;50.140;18.990;2022-09-17T16:57:16;15.13;;;7.78;;
39490;SDS011;25175;50.140;18.990;2022-09-17T17:00:40;13.38;;;7.95;;
39490;SDS011;25175;50.140;18.990;2022-09-17T17:04:02;18.67;;;7.57;;
39490;SDS011;25175;50.140;18.990;2022-09-17T17:07:22;13.77;;;7.20;;
39490;SDS011;25175;50.140;18.990;2022-09-17T17:10:36;14.65;;;7.03;;
39490;SDS011;25175;50.140;18.990;2022-09-17T17:13:52;15.93;;;6.95;;
39490;SDS011;25175;50.140;18.990;2022-09-17T17:17:13;15.20;;;7.20;;
39490;SDS011;25175;50.140;18.990;2022-09-17T17:20:33;13.13;;;7.25;;
39490;SDS011;25175;50.140;18.990;2022-09-17T17:23:52;15.55;;;8.50;;
39490;SDS011;25175;50.140;18.990;2022-09-17T17:27:12;20.08;;;8.68;;
39490;SDS011;25175;50.140;18.990;2022-09-17T17:30:32;14.80;;;8.75;;
39490;SDS011;25175;50.140;18.990;2022-09-17T17:33:53;18.15;;;9.60;;
39490;SDS011;25175;50.140;18.990;2022-09-17T17:37:15;28.77;;;13.80;;
39490;SDS011;25175;50.140;18.990;2022-09-17T17:40:32;38.30;;;17.45;;
39490;SDS011;25175;50.140;18.990;2022-09-17T17:43:52;35.58;;;17.02;;
39490;SDS011;25175;50.140;18.990;2022-09-17T17:47:15;34.03;;;17.23;;
39490;SDS011;25175;50.140;18.990;2022-09-17T17:50:34;29.85;;;14.75;;
39490;SDS011;25175;50.140;18.990;2022-09-17T17:53:52;25.23;;;13.23;;
39490;SDS011;25175;50.140;18.990;2022-09-17T17:57:12;25.13;;;12.48;;
39490;SDS011;25175;50.140;18.990;2022-09-17T18:00:27;25.33;;;11.35;;
39490;SDS011;25175;50.140;18.990;2022-09-17T18:03:42;26.20;;;11.88;;
39490;SDS011;25175;50.140;18.990;2022-09-17T18:07:04;23.73;;;11.00;;
39490;SDS011;25175;50.140;18.990;2022-09-17T18:10:17;26.95;;;12.18;;
39490;SDS011;25175;50.140;18.990;2022-09-17T18:13:38;28.50;;;12.15;;
39490;SDS011;25175;50.140;18.990;2022-09-17T18:16:58;27.05;;;12.40;;
39490;SDS011;25175;50.140;18.990;2022-09-17T18:20:18;29.90;;;12.90;;
39490;SDS011;25175;50.140;18.990;2022-09-17T18:23:39;28.33;;;14.20;;
39490;SDS011;25175;50.140;18.990;2022-09-17T18:26:52;34.40;;;15.88;;
39490;SDS011;25175;50.140;18.990;2022-09-17T18:30:17;31.58;;;15.35;;
39490;SDS011;25175;50.140;18.990;2022-09-17T18:33:37;36.20;;;16.20;;
39490;SDS011;25175;50.140;18.990;2022-09-17T18:36:53;34.50;;;16.52;;
39490;SDS011;25175;50.140;18.990;2022-09-17T18:40:14;38.80;;;16.63;;
39490;SDS011;25175;50.140;18.990;2022-09-17T18:43:28;35.97;;;16.80;;
39490;SDS011;25175;50.140;18.990;2022-09-17T18:46:42;39.95;;;17.80;;
39490;SDS011;25175;50.140;18.990;2022-09-17T18:50:03;36.08;;;17.02;;
39490;SDS011;25175;50.140;18.990;2022-09-17T18:53:23;40.25;;;16.65;;
39490;SDS011;25175;50.140;18.990;2022-09-17T18:56:39;34.65;;;15.63;;
39490;SDS011;25175;50.140;18.990;2022-09-17T18:59:57;32.63;;;14.82;;
39490;SDS011;25175;50.140;18.990;2022-09-17T19:03:12;35.92;;;15.73;;
39490;SDS011;25175;50.140;18.990;2022-09-17T19:06:32;35.03;;;16.00;;
39490;SDS011;25175;50.140;18.990;2022-09-17T19:09:47;33.88;;;15.57;;
39490;SDS011;25175;50.140;18.990;2022-09-17T19:13:09;30.55;;;15.55;;
39490;SDS011;25175;50.140;18.990;2022-09-17T19:16:27;34.10;;;16.60;;
39490;SDS011;25175;50.140;18.990;2022-09-17T19:19:43;32.33;;;15.20;;
39490;SDS011;25175;50.140;18.990;2022-09-17T19:23:22;33.95;;;15.57;;
39490;SDS011;25175;50.140;18.990;2022-09-17T19:26:43;37.90;;;16.35;;
39490;SDS011;25175;50.140;18.990;2022-09-17T19:30:04;35.08;;;14.43;;
39490;SDS011;25175;50.140;18.990;2022-09-17T19:33:57;32.05;;;13.35;;
39490;SDS011;25175;50.140;18.990;2022-09-17T19:37:17;17.60;;;8.95;;
39490;SDS011;25175;50.140;18.990;2022-09-17T19:40:32;14.65;;;6.65;;
39490;SDS011;25175;50.140;18.990;2022-09-17T19:43:53;10.73;;;5.22;;
39490;SDS011;25175;50.140;18.990;2022-09-17T19:47:09;8.38;;;4.80;;
39490;SDS011;25175;50.140;18.990;2022-09-17T19:50:23;8.77;;;4.40;;
39490;SDS011;25175;50.140;18.990;2022-09-17T19:53:43;13.55;;;4.68;;
39490;SDS011;25175;50.140;18.990;2022-09-17T19:56:58;6.43;;;3.67;;
39490;SDS011;25175;50.140;18.990;2022-09-17T20:00:13;8.15;;;3.67;;
39490;SDS011;25175;50.140;18.990;2022-09-17T20:03:34;6.85;;;3.38;;
39490;SDS011;25175;50.140;18.990;2022-09-17T20:06:52;7.28;;;3.25;;
39490;SDS011;25175;50.140;18.990;2022-09-17T20:10:15;6.53;;;2.92;;
39490;SDS011;25175;50.140;18.990;2022-09-17T20:13:33;6.20;;;2.72;;
39490;SDS011;25175;50.140;18.990;2022-09-17T20:16:53;5.20;;;2.50;;
39490;SDS011;25175;50.140;18.990;2022-09-17T20:20:11;8.20;;;3.03;;
39490;SDS011;25175;50.140;18.990;2022-09-17T20:23:28;6.53;;;2.85;;
39490;SDS011;25175;50.140;18.990;2022-09-17T20:26:48;6.78;;;3.15;;